sensor_id;sensor_type;location;lat;lon;timestamp;P1;durP1;ratioP1;P2;durP2;ratioP2
60919;SDS011;59039;52.108;19.942;2022-12-18T00:01:17;102.00;;;25.70;;
60919;SDS011;59039;52.108;19.942;2022-12-18T00:03:44;97.00;;;27.10;;
60919;SDS011;59039;52.108;19.942;2022-12-18T00:06:10;95.60;;;27.30;;
60919;SDS011;59039;52.108;19.942;2022-12-18T00:08:36;82.70;;;24.30;;
60919;SDS011;59039;52.108;19.942;2022-12-18T00:11:05;110.10;;;28.80;;
60919;SDS011;59039;52.108;19.942;2022-12-18T00:13:35;113.10;;;28.50;;
60919;SDS011;59039;52.108;19.942;2022-12-18T00:16:07;104.60;;;27.00;;
60919;SDS011;59039;52.108;19.942;2022-12-18T00:18:34;84.60;;;24.60;;
60919;SDS011;59039;52.108;19.942;2022-12-18T00:21:00;70.50;;;19.90;;
60919;SDS011;59039;52.108;19.942;2022-12-18T00:23:27;106.90;;;27.10;;
60919;SDS011;59039;52.108;19.942;2022-12-18T00:25:54;90.40;;;26.00;;
60919;SDS011;59039;52.108;19.942;2022-12-18T00:28:19;101.60;;;27.30;;
60919;SDS011;59039;52.108;19.942;2022-12-18T00:30:45;102.20;;;27.80;;
60919;SDS011;59039;52.108;19.942;2022-12-18T00:33:10;100.50;;;25.70;;
60919;SDS011;59039;52.108;19.942;2022-12-18T00:35:35;97.10;;;26.70;;
60919;SDS011;59039;52.108;19.942;2022-12-18T00:38:00;94.40;;;28.30;;
60919;SDS011;59039;52.108;19.942;2022-12-18T00:40:25;116.60;;;30.30;;
60919;SDS011;59039;52.108;19.942;2022-12-18T00:42:51;106.80;;;29.10;;
60919;SDS011;59039;52.108;19.942;2022-12-18T00:45:16;83.30;;;24.70;;
60919;SDS011;59039;52.108;19.942;2022-12-18T00:47:41;88.70;;;24.80;;
60919;SDS011;59039;52.108;19.942;2022-12-18T00:50:07;77.30;;;23.40;;
60919;SDS011;59039;52.108;19.942;2022-12-18T00:52:33;83.20;;;24.10;;
60919;SDS011;59039;52.108;19.942;2022-12-18T00:54:58;89.70;;;26.60;;
60919;SDS011;59039;52.108;19.942;2022-12-18T00:57:23;87.40;;;23.90;;
60919;SDS011;59039;52.108;19.942;2022-12-18T00:59:48;99.80;;;26.60;;
60919;SDS011;59039;52.108;19.942;2022-12-18T01:02:13;93.90;;;26.40;;
60919;SDS011;59039;52.108;19.942;2022-12-18T01:04:39;86.60;;;25.70;;
60919;SDS011;59039;52.108;19.942;2022-12-18T01:07:04;81.40;;;26.60;;
60919;SDS011;59039;52.108;19.942;2022-12-18T01:09:29;81.30;;;25.20;;
60919;SDS011;59039;52.108;19.942;2022-12-18T01:11:54;97.80;;;28.50;;
60919;SDS011;59039;52.108;19.942;2022-12-18T01:14:20;99.80;;;28.50;;
60919;SDS011;59039;52.108;19.942;2022-12-18T01:16:45;87.60;;;25.20;;
60919;SDS011;59039;52.108;19.942;2022-12-18T01:19:10;112.70;;;30.30;;
60919;SDS011;59039;52.108;19.942;2022-12-18T01:21:36;117.80;;;31.40;;
60919;SDS011;59039;52.108;19.942;2022-12-18T01:24:01;111.20;;;30.80;;
60919;SDS011;59039;52.108;19.942;2022-12-18T01:26:26;91.30;;;27.10;;
60919;SDS011;59039;52.108;19.942;2022-12-18T01:28:53;85.80;;;26.80;;
60919;SDS011;59039;52.108;19.942;2022-12-18T01:31:21;95.80;;;29.80;;
60919;SDS011;59039;52.108;19.942;2022-12-18T01:33:48;105.10;;;31.70;;
60919;SDS011;59039;52.108;19.942;2022-12-18T01:36:23;114.60;;;32.00;;
60919;SDS011;59039;52.108;19.942;2022-12-18T01:38:52;90.50;;;27.90;;
60919;SDS011;59039;52.108;19.942;2022-12-18T01:41:19;102.70;;;30.60;;
60919;SDS011;59039;52.108;19.942;2022-12-18T01:43:56;109.10;;;26.40;;
60919;SDS011;59039;52.108;19.942;2022-12-18T01:46:23;97.80;;;28.30;;
60919;SDS011;59039;52.108;19.942;2022-12-18T01:48:50;67.00;;;21.20;;
60919;SDS011;59039;52.108;19.942;2022-12-18T01:51:20;103.30;;;29.80;;
60919;SDS011;59039;52.108;19.942;2022-12-18T01:53:46;93.00;;;27.60;;
60919;SDS011;59039;52.108;19.942;2022-12-18T01:56:13;73.90;;;24.40;;
60919;SDS011;59039;52.108;19.942;2022-12-18T02:01:27;81.00;;;26.60;;
60919;SDS011;59039;52.108;19.942;2022-12-18T02:03:54;100.30;;;30.40;;
60919;SDS011;59039;52.108;19.942;2022-12-18T02:09:02;90.00;;;23.70;;
60919;SDS011;59039;52.108;19.942;2022-12-18T02:11:59;73.50;;;21.60;;
60919;SDS011;59039;52.108;19.942;2022-12-18T02:14:38;70.90;;;25.30;;
60919;SDS011;59039;52.108;19.942;2022-12-18T02:17:13;72.70;;;25.70;;
60919;SDS011;59039;52.108;19.942;2022-12-18T02:27:37;124.40;;;30.70;;
60919;SDS011;59039;52.108;19.942;2022-12-18T02:30:05;73.40;;;22.50;;
60919;SDS011;59039;52.108;19.942;2022-12-18T02:32:34;88.80;;;25.30;;
60919;SDS011;59039;52.108;19.942;2022-12-18T02:35:04;74.90;;;23.70;;
60919;SDS011;59039;52.108;19.942;2022-12-18T02:37:31;89.40;;;26.40;;
60919;SDS011;59039;52.108;19.942;2022-12-18T02:39:59;104.40;;;26.90;;
60919;SDS011;59039;52.108;19.942;2022-12-18T02:42:27;89.70;;;25.80;;
60919;SDS011;59039;52.108;19.942;2022-12-18T02:44:53;104.50;;;30.50;;
60919;SDS011;59039;52.108;19.942;2022-12-18T02:47:19;101.10;;;28.40;;
60919;SDS011;59039;52.108;19.942;2022-12-18T02:52:39;106.10;;;26.90;;
60919;SDS011;59039;52.108;19.942;2022-12-18T02:55:10;95.10;;;27.50;;
60919;SDS011;59039;52.108;19.942;2022-12-18T03:00:23;105.60;;;30.30;;
60919;SDS011;59039;52.108;19.942;2022-12-18T03:02:55;102.50;;;30.00;;
60919;SDS011;59039;52.108;19.942;2022-12-18T03:05:22;100.10;;;27.70;;
60919;SDS011;59039;52.108;19.942;2022-12-18T03:10:43;84.00;;;25.00;;
60919;SDS011;59039;52.108;19.942;2022-12-18T03:13:19;83.30;;;24.10;;
60919;SDS011;59039;52.108;19.942;2022-12-18T03:15:50;92.50;;;29.20;;
60919;SDS011;59039;52.108;19.942;2022-12-18T03:21:24;95.50;;;25.70;;
60919;SDS011;59039;52.108;19.942;2022-12-18T03:26:22;84.80;;;25.70;;
60919;SDS011;59039;52.108;19.942;2022-12-18T03:29:12;102.20;;;27.50;;
60919;SDS011;59039;52.108;19.942;2022-12-18T03:31:40;74.80;;;24.90;;
60919;SDS011;59039;52.108;19.942;2022-12-18T03:34:17;99.70;;;27.30;;
60919;SDS011;59039;52.108;19.942;2022-12-18T03:36:54;103.80;;;27.90;;
60919;SDS011;59039;52.108;19.942;2022-12-18T03:39:19;104.80;;;31.20;;
60919;SDS011;59039;52.108;19.942;2022-12-18T03:41:52;93.40;;;27.00;;
60919;SDS011;59039;52.108;19.942;2022-12-18T03:49:32;96.80;;;29.30;;
60919;SDS011;59039;52.108;19.942;2022-12-18T03:52:07;85.00;;;25.60;;
60919;SDS011;59039;52.108;19.942;2022-12-18T03:54:37;115.10;;;29.90;;
60919;SDS011;59039;52.108;19.942;2022-12-18T03:57:06;85.40;;;27.20;;
60919;SDS011;59039;52.108;19.942;2022-12-18T03:59:34;80.00;;;23.90;;
60919;SDS011;59039;52.108;19.942;2022-12-18T04:02:01;86.80;;;26.30;;
60919;SDS011;59039;52.108;19.942;2022-12-18T04:04:28;76.00;;;24.60;;
60919;SDS011;59039;52.108;19.942;2022-12-18T04:06:56;84.30;;;26.40;;
60919;SDS011;59039;52.108;19.942;2022-12-18T04:09:23;90.00;;;26.40;;
60919;SDS011;59039;52.108;19.942;2022-12-18T04:11:49;95.80;;;28.20;;
60919;SDS011;59039;52.108;19.942;2022-12-18T04:14:16;109.00;;;28.20;;
60919;SDS011;59039;52.108;19.942;2022-12-18T04:16:41;100.00;;;29.60;;
60919;SDS011;59039;52.108;19.942;2022-12-18T04:19:06;91.30;;;26.00;;
60919;SDS011;59039;52.108;19.942;2022-12-18T04:21:31;87.70;;;27.10;;
60919;SDS011;59039;52.108;19.942;2022-12-18T04:23:57;87.70;;;26.60;;
60919;SDS011;59039;52.108;19.942;2022-12-18T04:26:22;96.00;;;28.90;;
60919;SDS011;59039;52.108;19.942;2022-12-18T04:28:47;92.30;;;28.00;;
60919;SDS011;59039;52.108;19.942;2022-12-18T04:31:12;93.60;;;27.20;;
60919;SDS011;59039;52.108;19.942;2022-12-18T04:33:38;70.30;;;22.60;;
60919;SDS011;59039;52.108;19.942;2022-12-18T04:36:03;85.80;;;24.30;;
60919;SDS011;59039;52.108;19.942;2022-12-18T04:38:29;82.70;;;26.50;;
60919;SDS011;59039;52.108;19.942;2022-12-18T04:40:54;102.50;;;31.20;;
60919;SDS011;59039;52.108;19.942;2022-12-18T04:43:19;86.20;;;25.80;;
60919;SDS011;59039;52.108;19.942;2022-12-18T04:45:45;93.10;;;27.50;;
60919;SDS011;59039;52.108;19.942;2022-12-18T04:48:10;106.00;;;29.90;;
60919;SDS011;59039;52.108;19.942;2022-12-18T04:50:35;93.80;;;28.30;;
60919;SDS011;59039;52.108;19.942;2022-12-18T04:53:00;98.00;;;28.70;;
60919;SDS011;59039;52.108;19.942;2022-12-18T04:55:26;92.90;;;28.40;;
60919;SDS011;59039;52.108;19.942;2022-12-18T04:57:52;98.80;;;30.20;;
60919;SDS011;59039;52.108;19.942;2022-12-18T05:00:18;112.50;;;30.80;;
60919;SDS011;59039;52.108;19.942;2022-12-18T05:02:44;104.80;;;30.00;;
60919;SDS011;59039;52.108;19.942;2022-12-18T05:05:09;83.00;;;28.60;;
60919;SDS011;59039;52.108;19.942;2022-12-18T05:07:35;92.30;;;27.80;;
60919;SDS011;59039;52.108;19.942;2022-12-18T05:10:00;98.40;;;31.60;;
60919;SDS011;59039;52.108;19.942;2022-12-18T05:12:25;93.80;;;27.40;;
60919;SDS011;59039;52.108;19.942;2022-12-18T05:14:51;85.70;;;26.00;;
60919;SDS011;59039;52.108;19.942;2022-12-18T05:17:16;90.90;;;26.40;;
60919;SDS011;59039;52.108;19.942;2022-12-18T05:19:41;88.50;;;28.60;;
60919;SDS011;59039;52.108;19.942;2022-12-18T05:22:07;97.20;;;27.60;;
60919;SDS011;59039;52.108;19.942;2022-12-18T05:24:32;94.40;;;25.60;;
60919;SDS011;59039;52.108;19.942;2022-12-18T05:26:57;98.60;;;29.00;;
60919;SDS011;59039;52.108;19.942;2022-12-18T05:29:23;88.80;;;26.90;;
60919;SDS011;59039;52.108;19.942;2022-12-18T05:31:48;112.30;;;36.30;;
60919;SDS011;59039;52.108;19.942;2022-12-18T05:34:13;136.60;;;42.00;;
60919;SDS011;59039;52.108;19.942;2022-12-18T05:36:38;113.30;;;33.90;;
60919;SDS011;59039;52.108;19.942;2022-12-18T05:39:04;92.80;;;29.60;;
60919;SDS011;59039;52.108;19.942;2022-12-18T05:41:29;102.20;;;30.10;;
60919;SDS011;59039;52.108;19.942;2022-12-18T05:43:54;107.80;;;30.00;;
60919;SDS011;59039;52.108;19.942;2022-12-18T05:46:19;152.60;;;48.50;;
60919;SDS011;59039;52.108;19.942;2022-12-18T05:48:45;231.40;;;62.00;;
60919;SDS011;59039;52.108;19.942;2022-12-18T05:51:11;239.80;;;63.30;;
60919;SDS011;59039;52.108;19.942;2022-12-18T05:53:38;236.80;;;58.80;;
60919;SDS011;59039;52.108;19.942;2022-12-18T05:56:05;253.60;;;64.30;;
60919;SDS011;59039;52.108;19.942;2022-12-18T05:58:32;309.10;;;75.70;;
60919;SDS011;59039;52.108;19.942;2022-12-18T06:01:05;250.50;;;59.20;;
60919;SDS011;59039;52.108;19.942;2022-12-18T06:03:37;158.70;;;41.50;;
60919;SDS011;59039;52.108;19.942;2022-12-18T06:06:03;162.60;;;40.90;;
60919;SDS011;59039;52.108;19.942;2022-12-18T06:08:28;157.30;;;40.40;;
60919;SDS011;59039;52.108;19.942;2022-12-18T06:10:54;141.30;;;39.40;;
60919;SDS011;59039;52.108;19.942;2022-12-18T06:13:19;198.40;;;51.70;;
60919;SDS011;59039;52.108;19.942;2022-12-18T06:15:45;195.40;;;50.80;;
60919;SDS011;59039;52.108;19.942;2022-12-18T06:18:10;200.30;;;46.60;;
60919;SDS011;59039;52.108;19.942;2022-12-18T06:20:35;147.90;;;39.10;;
60919;SDS011;59039;52.108;19.942;2022-12-18T06:23:01;130.80;;;34.60;;
60919;SDS011;59039;52.108;19.942;2022-12-18T06:25:26;107.00;;;30.30;;
60919;SDS011;59039;52.108;19.942;2022-12-18T06:27:51;125.80;;;32.80;;
60919;SDS011;59039;52.108;19.942;2022-12-18T06:30:16;106.30;;;30.30;;
60919;SDS011;59039;52.108;19.942;2022-12-18T06:32:42;139.90;;;36.80;;
60919;SDS011;59039;52.108;19.942;2022-12-18T06:35:07;160.50;;;43.70;;
60919;SDS011;59039;52.108;19.942;2022-12-18T06:37:32;151.10;;;41.90;;
60919;SDS011;59039;52.108;19.942;2022-12-18T06:39:58;146.20;;;42.90;;
60919;SDS011;59039;52.108;19.942;2022-12-18T06:42:23;190.10;;;52.90;;
60919;SDS011;59039;52.108;19.942;2022-12-18T06:44:49;181.30;;;51.60;;
60919;SDS011;59039;52.108;19.942;2022-12-18T06:47:14;165.50;;;48.50;;
60919;SDS011;59039;52.108;19.942;2022-12-18T06:49:39;178.10;;;53.10;;
60919;SDS011;59039;52.108;19.942;2022-12-18T06:52:04;179.10;;;51.80;;
60919;SDS011;59039;52.108;19.942;2022-12-18T06:54:30;184.10;;;55.10;;
60919;SDS011;59039;52.108;19.942;2022-12-18T06:56:55;176.10;;;51.60;;
60919;SDS011;59039;52.108;19.942;2022-12-18T06:59:20;152.10;;;48.50;;
60919;SDS011;59039;52.108;19.942;2022-12-18T07:01:45;149.40;;;47.30;;
60919;SDS011;59039;52.108;19.942;2022-12-18T07:04:11;168.60;;;48.70;;
60919;SDS011;59039;52.108;19.942;2022-12-18T07:06:36;163.70;;;49.90;;
60919;SDS011;59039;52.108;19.942;2022-12-18T07:09:01;151.00;;;47.00;;
60919;SDS011;59039;52.108;19.942;2022-12-18T07:11:26;142.20;;;43.70;;
60919;SDS011;59039;52.108;19.942;2022-12-18T07:13:52;147.60;;;44.10;;
60919;SDS011;59039;52.108;19.942;2022-12-18T07:16:18;122.40;;;38.50;;
60919;SDS011;59039;52.108;19.942;2022-12-18T07:18:45;120.60;;;41.70;;
60919;SDS011;59039;52.108;19.942;2022-12-18T07:21:12;124.30;;;43.80;;
60919;SDS011;59039;52.108;19.942;2022-12-18T07:23:39;146.30;;;45.10;;
60919;SDS011;59039;52.108;19.942;2022-12-18T07:26:05;156.10;;;45.50;;
60919;SDS011;59039;52.108;19.942;2022-12-18T07:28:32;119.40;;;40.20;;
60919;SDS011;59039;52.108;19.942;2022-12-18T07:31:02;131.30;;;37.50;;
60919;SDS011;59039;52.108;19.942;2022-12-18T07:33:38;143.50;;;40.60;;
60919;SDS011;59039;52.108;19.942;2022-12-18T07:36:04;142.40;;;42.20;;
60919;SDS011;59039;52.108;19.942;2022-12-18T07:38:31;111.30;;;34.80;;
60919;SDS011;59039;52.108;19.942;2022-12-18T07:41:04;111.30;;;32.90;;
60919;SDS011;59039;52.108;19.942;2022-12-18T07:43:34;112.50;;;35.10;;
60919;SDS011;59039;52.108;19.942;2022-12-18T07:45:59;104.80;;;33.90;;
60919;SDS011;59039;52.108;19.942;2022-12-18T07:48:25;90.00;;;28.50;;
60919;SDS011;59039;52.108;19.942;2022-12-18T07:50:50;92.80;;;31.10;;
60919;SDS011;59039;52.108;19.942;2022-12-18T07:53:16;111.80;;;33.20;;
60919;SDS011;59039;52.108;19.942;2022-12-18T07:55:41;90.40;;;30.00;;
60919;SDS011;59039;52.108;19.942;2022-12-18T07:58:07;71.50;;;23.30;;
60919;SDS011;59039;52.108;19.942;2022-12-18T08:00:32;107.40;;;32.70;;
60919;SDS011;59039;52.108;19.942;2022-12-18T08:02:58;93.10;;;30.70;;
60919;SDS011;59039;52.108;19.942;2022-12-18T08:05:23;107.00;;;31.90;;
60919;SDS011;59039;52.108;19.942;2022-12-18T08:07:49;90.60;;;28.10;;
60919;SDS011;59039;52.108;19.942;2022-12-18T08:10:14;116.20;;;32.50;;
60919;SDS011;59039;52.108;19.942;2022-12-18T08:12:39;98.00;;;32.50;;
60919;SDS011;59039;52.108;19.942;2022-12-18T08:15:05;118.40;;;37.40;;
60919;SDS011;59039;52.108;19.942;2022-12-18T08:17:31;129.70;;;39.40;;
60919;SDS011;59039;52.108;19.942;2022-12-18T08:19:56;129.90;;;40.20;;
60919;SDS011;59039;52.108;19.942;2022-12-18T08:22:21;117.60;;;34.90;;
60919;SDS011;59039;52.108;19.942;2022-12-18T08:24:46;136.70;;;37.80;;
60919;SDS011;59039;52.108;19.942;2022-12-18T08:27:12;110.90;;;33.20;;
60919;SDS011;59039;52.108;19.942;2022-12-18T08:29:37;97.50;;;30.90;;
60919;SDS011;59039;52.108;19.942;2022-12-18T08:32:02;125.40;;;37.90;;
60919;SDS011;59039;52.108;19.942;2022-12-18T08:34:27;107.20;;;35.00;;
60919;SDS011;59039;52.108;19.942;2022-12-18T08:36:53;108.80;;;31.80;;
60919;SDS011;59039;52.108;19.942;2022-12-18T08:39:18;83.60;;;27.50;;
60919;SDS011;59039;52.108;19.942;2022-12-18T08:41:43;126.60;;;34.70;;
60919;SDS011;59039;52.108;19.942;2022-12-18T08:44:08;131.00;;;35.50;;
60919;SDS011;59039;52.108;19.942;2022-12-18T08:46:35;127.10;;;36.30;;
60919;SDS011;59039;52.108;19.942;2022-12-18T08:49:05;110.40;;;34.90;;
60919;SDS011;59039;52.108;19.942;2022-12-18T08:51:31;130.90;;;36.40;;
60919;SDS011;59039;52.108;19.942;2022-12-18T08:53:57;124.70;;;34.70;;
60919;SDS011;59039;52.108;19.942;2022-12-18T08:56:22;97.50;;;30.20;;
60919;SDS011;59039;52.108;19.942;2022-12-18T08:58:47;103.20;;;28.40;;
60919;SDS011;59039;52.108;19.942;2022-12-18T09:01:16;98.30;;;28.50;;
60919;SDS011;59039;52.108;19.942;2022-12-18T09:03:42;97.20;;;28.50;;
60919;SDS011;59039;52.108;19.942;2022-12-18T09:06:07;76.00;;;25.30;;
60919;SDS011;59039;52.108;19.942;2022-12-18T09:08:33;75.50;;;21.30;;
60919;SDS011;59039;52.108;19.942;2022-12-18T09:10:58;88.40;;;26.90;;
60919;SDS011;59039;52.108;19.942;2022-12-18T09:13:23;79.20;;;25.00;;
60919;SDS011;59039;52.108;19.942;2022-12-18T09:15:50;80.30;;;26.40;;
60919;SDS011;59039;52.108;19.942;2022-12-18T09:18:17;99.30;;;28.70;;
60919;SDS011;59039;52.108;19.942;2022-12-18T09:20:44;112.30;;;33.10;;
60919;SDS011;59039;52.108;19.942;2022-12-18T09:23:10;144.80;;;38.40;;
60919;SDS011;59039;52.108;19.942;2022-12-18T09:25:36;153.60;;;40.90;;
60919;SDS011;59039;52.108;19.942;2022-12-18T09:28:03;159.80;;;44.40;;
60919;SDS011;59039;52.108;19.942;2022-12-18T09:30:29;154.70;;;41.30;;
60919;SDS011;59039;52.108;19.942;2022-12-18T09:32:55;123.20;;;37.20;;
60919;SDS011;59039;52.108;19.942;2022-12-18T09:35:20;91.10;;;28.50;;
60919;SDS011;59039;52.108;19.942;2022-12-18T09:37:46;67.40;;;24.50;;
60919;SDS011;59039;52.108;19.942;2022-12-18T09:40:18;84.00;;;25.90;;
60919;SDS011;59039;52.108;19.942;2022-12-18T09:42:47;95.40;;;27.00;;
60919;SDS011;59039;52.108;19.942;2022-12-18T09:45:17;96.00;;;31.00;;
60919;SDS011;59039;52.108;19.942;2022-12-18T09:47:43;91.30;;;31.40;;
60919;SDS011;59039;52.108;19.942;2022-12-18T09:50:31;91.10;;;30.70;;
60919;SDS011;59039;52.108;19.942;2022-12-18T09:53:06;84.40;;;29.70;;
60919;SDS011;59039;52.108;19.942;2022-12-18T09:55:37;105.00;;;28.50;;
60919;SDS011;59039;52.108;19.942;2022-12-18T10:00:34;100.50;;;29.30;;
60919;SDS011;59039;52.108;19.942;2022-12-18T10:03:01;106.70;;;33.40;;
60919;SDS011;59039;52.108;19.942;2022-12-18T10:08:19;103.20;;;33.30;;
60919;SDS011;59039;52.108;19.942;2022-12-18T10:10:52;128.70;;;36.20;;
60919;SDS011;59039;52.108;19.942;2022-12-18T10:21:19;146.30;;;41.90;;
60919;SDS011;59039;52.108;19.942;2022-12-18T10:23:52;153.40;;;45.70;;
60919;SDS011;59039;52.108;19.942;2022-12-18T10:26:25;157.50;;;45.60;;
60919;SDS011;59039;52.108;19.942;2022-12-18T10:28:50;141.80;;;43.30;;
60919;SDS011;59039;52.108;19.942;2022-12-18T10:31:18;151.40;;;42.30;;
60919;SDS011;59039;52.108;19.942;2022-12-18T10:33:46;142.70;;;40.30;;
60919;SDS011;59039;52.108;19.942;2022-12-18T10:36:11;150.70;;;43.50;;
60919;SDS011;59039;52.108;19.942;2022-12-18T10:38:37;124.00;;;36.50;;
60919;SDS011;59039;52.108;19.942;2022-12-18T10:41:04;128.50;;;39.20;;
60919;SDS011;59039;52.108;19.942;2022-12-18T10:51:22;110.40;;;33.10;;
60919;SDS011;59039;52.108;19.942;2022-12-18T10:53:51;186.40;;;56.40;;
60919;SDS011;59039;52.108;19.942;2022-12-18T10:56:24;221.30;;;66.10;;
60919;SDS011;59039;52.108;19.942;2022-12-18T10:58:55;203.40;;;54.20;;
60919;SDS011;59039;52.108;19.942;2022-12-18T11:01:22;132.50;;;35.10;;
60919;SDS011;59039;52.108;19.942;2022-12-18T11:04:08;122.40;;;33.00;;
60919;SDS011;59039;52.108;19.942;2022-12-18T11:06:33;133.30;;;34.40;;
60919;SDS011;59039;52.108;19.942;2022-12-18T11:12:30;106.80;;;32.70;;
60919;SDS011;59039;52.108;19.942;2022-12-18T11:14:50;97.40;;;30.10;;
60919;SDS011;59039;52.108;19.942;2022-12-18T11:19:51;130.20;;;37.00;;
60919;SDS011;59039;52.108;19.942;2022-12-18T11:22:28;140.80;;;38.80;;
60919;SDS011;59039;52.108;19.942;2022-12-18T11:25:06;173.20;;;45.10;;
60919;SDS011;59039;52.108;19.942;2022-12-18T11:27:54;128.60;;;36.90;;
60919;SDS011;59039;52.108;19.942;2022-12-18T11:32:55;174.70;;;46.90;;
60919;SDS011;59039;52.108;19.942;2022-12-18T11:35:32;163.70;;;47.30;;
60919;SDS011;59039;52.108;19.942;2022-12-18T11:38:04;183.30;;;49.20;;
60919;SDS011;59039;52.108;19.942;2022-12-18T11:40:43;182.20;;;48.80;;
60919;SDS011;59039;52.108;19.942;2022-12-18T11:45:53;200.40;;;54.90;;
60919;SDS011;59039;52.108;19.942;2022-12-18T11:48:25;198.10;;;50.80;;
60919;SDS011;59039;52.108;19.942;2022-12-18T11:50:55;193.30;;;48.80;;
60919;SDS011;59039;52.108;19.942;2022-12-18T11:53:22;194.80;;;48.20;;
60919;SDS011;59039;52.108;19.942;2022-12-18T11:56:01;158.80;;;38.90;;
60919;SDS011;59039;52.108;19.942;2022-12-18T12:01:37;192.30;;;57.10;;
60919;SDS011;59039;52.108;19.942;2022-12-18T12:04:29;224.40;;;61.00;;
60919;SDS011;59039;52.108;19.942;2022-12-18T12:10:12;270.50;;;71.80;;
60919;SDS011;59039;52.108;19.942;2022-12-18T12:15:39;309.50;;;75.90;;
60919;SDS011;59039;52.108;19.942;2022-12-18T12:20:49;181.80;;;49.30;;
60919;SDS011;59039;52.108;19.942;2022-12-18T12:23:36;147.60;;;43.50;;
60919;SDS011;59039;52.108;19.942;2022-12-18T12:26:06;136.80;;;42.00;;
60919;SDS011;59039;52.108;19.942;2022-12-18T12:34:19;161.40;;;44.70;;
60919;SDS011;59039;52.108;19.942;2022-12-18T12:36:59;135.60;;;39.60;;
60919;SDS011;59039;52.108;19.942;2022-12-18T12:39:48;155.20;;;40.70;;
60919;SDS011;59039;52.108;19.942;2022-12-18T12:45:04;152.70;;;42.90;;
60919;SDS011;59039;52.108;19.942;2022-12-18T12:47:38;169.70;;;46.60;;
60919;SDS011;59039;52.108;19.942;2022-12-18T12:50:12;174.40;;;47.20;;
60919;SDS011;59039;52.108;19.942;2022-12-18T12:52:47;161.00;;;45.30;;
60919;SDS011;59039;52.108;19.942;2022-12-18T12:55:26;156.50;;;41.90;;
60919;SDS011;59039;52.108;19.942;2022-12-18T12:58:15;151.50;;;41.10;;
60919;SDS011;59039;52.108;19.942;2022-12-18T13:04:06;157.60;;;46.30;;
60919;SDS011;59039;52.108;19.942;2022-12-18T13:06:45;162.80;;;48.50;;
60919;SDS011;59039;52.108;19.942;2022-12-18T13:09:17;179.60;;;48.10;;
60919;SDS011;59039;52.108;19.942;2022-12-18T13:11:43;152.40;;;39.30;;
60919;SDS011;59039;52.108;19.942;2022-12-18T13:14:19;117.70;;;34.50;;
60919;SDS011;59039;52.108;19.942;2022-12-18T13:17:13;124.60;;;33.60;;
60919;SDS011;59039;52.108;19.942;2022-12-18T13:19:44;145.50;;;39.60;;
60919;SDS011;59039;52.108;19.942;2022-12-18T13:22:23;123.80;;;37.80;;
60919;SDS011;59039;52.108;19.942;2022-12-18T13:24:59;163.30;;;43.50;;
60919;SDS011;59039;52.108;19.942;2022-12-18T13:27:44;153.50;;;43.90;;
60919;SDS011;59039;52.108;19.942;2022-12-18T13:33:30;158.20;;;39.60;;
60919;SDS011;59039;52.108;19.942;2022-12-18T13:35:52;155.30;;;41.00;;
60919;SDS011;59039;52.108;19.942;2022-12-18T13:40:57;147.80;;;43.30;;
60919;SDS011;59039;52.108;19.942;2022-12-18T13:43:28;171.20;;;49.50;;
60919;SDS011;59039;52.108;19.942;2022-12-18T13:48:24;175.50;;;52.80;;
60919;SDS011;59039;52.108;19.942;2022-12-18T13:51:01;193.50;;;52.00;;
60919;SDS011;59039;52.108;19.942;2022-12-18T13:53:42;153.20;;;45.00;;
60919;SDS011;59039;52.108;19.942;2022-12-18T13:56:09;155.00;;;44.50;;
60919;SDS011;59039;52.108;19.942;2022-12-18T13:58:40;195.90;;;54.50;;
60919;SDS011;59039;52.108;19.942;2022-12-18T14:01:15;220.10;;;64.20;;
60919;SDS011;59039;52.108;19.942;2022-12-18T14:03:46;208.40;;;60.40;;
60919;SDS011;59039;52.108;19.942;2022-12-18T14:06:12;180.30;;;53.00;;
60919;SDS011;59039;52.108;19.942;2022-12-18T14:08:39;198.90;;;56.50;;
60919;SDS011;59039;52.108;19.942;2022-12-18T14:11:05;211.40;;;61.90;;
60919;SDS011;59039;52.108;19.942;2022-12-18T14:13:33;232.50;;;62.70;;
60919;SDS011;59039;52.108;19.942;2022-12-18T14:16:06;208.10;;;59.20;;
60919;SDS011;59039;52.108;19.942;2022-12-18T14:21:15;227.90;;;67.70;;
60919;SDS011;59039;52.108;19.942;2022-12-18T14:24:02;213.20;;;54.80;;
60919;SDS011;59039;52.108;19.942;2022-12-18T14:26:33;222.00;;;66.70;;
60919;SDS011;59039;52.108;19.942;2022-12-18T14:28:59;239.50;;;72.00;;
60919;SDS011;59039;52.108;19.942;2022-12-18T14:31:27;252.30;;;78.10;;
60919;SDS011;59039;52.108;19.942;2022-12-18T14:33:54;217.40;;;60.00;;
60919;SDS011;59039;52.108;19.942;2022-12-18T14:36:21;156.10;;;42.20;;
60919;SDS011;59039;52.108;19.942;2022-12-18T14:38:49;149.50;;;41.70;;
60919;SDS011;59039;52.108;19.942;2022-12-18T14:41:17;186.20;;;46.30;;
60919;SDS011;59039;52.108;19.942;2022-12-18T14:43:45;182.60;;;50.10;;
60919;SDS011;59039;52.108;19.942;2022-12-18T14:49:20;201.40;;;50.60;;
60919;SDS011;59039;52.108;19.942;2022-12-18T14:51:51;191.10;;;47.90;;
60919;SDS011;59039;52.108;19.942;2022-12-18T14:54:18;189.00;;;53.20;;
60919;SDS011;59039;52.108;19.942;2022-12-18T14:56:46;207.90;;;59.90;;
60919;SDS011;59039;52.108;19.942;2022-12-18T14:59:14;262.50;;;71.60;;
60919;SDS011;59039;52.108;19.942;2022-12-18T15:04:38;254.50;;;70.50;;
60919;SDS011;59039;52.108;19.942;2022-12-18T15:07:18;248.60;;;61.90;;
60919;SDS011;59039;52.108;19.942;2022-12-18T15:12:36;263.30;;;70.20;;
60919;SDS011;59039;52.108;19.942;2022-12-18T15:15:04;396.30;;;100.30;;
60919;SDS011;59039;52.108;19.942;2022-12-18T15:17:56;431.10;;;111.50;;
60919;SDS011;59039;52.108;19.942;2022-12-18T15:20:22;434.70;;;123.90;;
60919;SDS011;59039;52.108;19.942;2022-12-18T15:22:47;433.60;;;122.00;;
60919;SDS011;59039;52.108;19.942;2022-12-18T15:25:32;356.90;;;101.30;;
60919;SDS011;59039;52.108;19.942;2022-12-18T15:28:01;283.80;;;75.60;;
60919;SDS011;59039;52.108;19.942;2022-12-18T15:30:26;254.30;;;70.00;;
60919;SDS011;59039;52.108;19.942;2022-12-18T15:32:51;205.30;;;58.60;;
60919;SDS011;59039;52.108;19.942;2022-12-18T15:35:37;226.70;;;71.90;;
60919;SDS011;59039;52.108;19.942;2022-12-18T15:38:02;266.00;;;78.10;;
60919;SDS011;59039;52.108;19.942;2022-12-18T15:40:28;242.70;;;68.20;;
60919;SDS011;59039;52.108;19.942;2022-12-18T15:42:53;252.70;;;72.80;;
60919;SDS011;59039;52.108;19.942;2022-12-18T15:45:20;248.70;;;73.40;;
60919;SDS011;59039;52.108;19.942;2022-12-18T15:47:45;206.10;;;61.80;;
60919;SDS011;59039;52.108;19.942;2022-12-18T15:50:10;223.80;;;58.70;;
60919;SDS011;59039;52.108;19.942;2022-12-18T15:52:39;183.50;;;52.30;;
60919;SDS011;59039;52.108;19.942;2022-12-18T15:57:47;179.60;;;46.50;;
60919;SDS011;59039;52.108;19.942;2022-12-18T16:00:13;189.40;;;49.50;;